createdAt,value
2023-08-08T00:00:52.181Z,101255.75
2023-08-08T00:03:24.325Z,101270.03
2023-08-08T00:05:56.524Z,101267.25
2023-08-08T00:08:28.513Z,101272.44
2023-08-08T00:11:00.528Z,101267.13
2023-08-08T00:13:32.684Z,101268.06
2023-08-08T00:16:05.842Z,101272.41
2023-08-08T00:18:38.095Z,101265.34
2023-08-08T00:21:10.070Z,101256.47
2023-08-08T00:23:42.021Z,101266.25
2023-08-08T00:26:16.786Z,101262.69
2023-08-08T00:28:48.760Z,101270.69
2023-08-08T00:31:21.218Z,101275.94
2023-08-08T00:33:53.268Z,101276.00
2023-08-08T00:36:25.362Z,101260.91
2023-08-08T00:38:57.328Z,101264.50
2023-08-08T00:41:29.329Z,101267.13
2023-08-08T00:44:01.371Z,101251.88
2023-08-08T00:46:33.635Z,101259.03
2023-08-08T00:49:05.925Z,101254.69
2023-08-08T00:51:38.872Z,101227.00
2023-08-08T00:54:11.851Z,101215.44
2023-08-08T00:56:43.935Z,101254.69
2023-08-08T00:59:20.420Z,101244.78
2023-08-08T01:01:52.592Z,101246.69
2023-08-08T01:04:28.244Z,101243.13
2023-08-08T01:07:18.535Z,101245.66
2023-08-08T01:10:19.982Z,101250.91
2023-08-08T01:13:03.769Z,101253.56
2023-08-08T01:15:37.889Z,101255.41
2023-08-08T01:18:12.550Z,101259.03
2023-08-08T01:20:46.477Z,101250.13
2023-08-08T01:23:34.314Z,101234.00
2023-08-08T01:26:09.332Z,101249.22
2023-08-08T01:28:46.222Z,101226.03
2023-08-08T01:31:18.428Z,101215.34
2023-08-08T01:33:50.873Z,101248.38
2023-08-08T01:36:32.305Z,101257.22
2023-08-08T01:39:10.012Z,101243.97
2023-08-08T01:41:45.553Z,101238.59
2023-08-08T01:44:19.029Z,101252.09
2023-08-08T01:46:51.191Z,101247.56
2023-08-08T01:49:23.334Z,101235.00
2023-08-08T01:51:55.494Z,101238.47
2023-08-08T01:54:27.566Z,101236.59
2023-08-08T01:56:59.740Z,101236.69
2023-08-08T01:59:31.716Z,101237.66
2023-08-08T02:02:04.042Z,101227.91
2023-08-08T02:04:36.190Z,101215.34
2023-08-08T02:07:08.148Z,101227.06
2023-08-08T02:09:40.252Z,101217.25
2023-08-08T02:12:12.224Z,101219.84
2023-08-08T02:14:44.299Z,101226.88
2023-08-08T02:17:16.344Z,101218.88
2023-08-08T02:19:48.626Z,101216.19
2023-08-08T02:22:20.693Z,101228.34
2023-08-08T02:24:52.771Z,101212.28
2023-08-08T02:27:24.816Z,101205.97
2023-08-08T02:29:58.679Z,101217.59
2023-08-08T02:32:30.696Z,101199.72
2023-08-08T02:35:03.076Z,101195.19
2023-08-08T02:37:35.102Z,101216.47
2023-08-08T02:40:10.970Z,101212.06
2023-08-08T02:42:43.083Z,101206.88
2023-08-08T02:45:15.191Z,101208.72
2023-08-08T02:47:47.192Z,101179.38
2023-08-08T02:50:19.127Z,101183.94
2023-08-08T02:52:51.431Z,101178.53
2023-08-08T02:55:23.555Z,101198.16
2023-08-08T02:57:55.540Z,101177.50
2023-08-08T03:00:27.545Z,101192.66
2023-08-08T03:02:59.736Z,101173.94
2023-08-08T03:05:31.778Z,101169.47
2023-08-08T03:08:04.090Z,101179.25
2023-08-08T03:10:36.282Z,101189.97
2023-08-08T03:13:08.598Z,101204.94
2023-08-08T03:15:40.779Z,101179.88
2023-08-08T03:18:12.842Z,101176.31
2023-08-08T03:20:46.451Z,101197.69
2023-08-08T03:23:18.615Z,101165.50
2023-08-08T03:25:50.862Z,101190.59
2023-08-08T03:28:22.820Z,101160.19
2023-08-08T03:30:54.809Z,101198.41
2023-08-08T03:33:27.325Z,101178.00
2023-08-08T03:35:59.388Z,101193.16
2023-08-08T03:38:31.476Z,101186.13
2023-08-08T03:41:03.523Z,101167.25
2023-08-08T03:43:36.220Z,101187.69
2023-08-08T03:46:08.312Z,101178.00
2023-08-08T03:48:40.703Z,101182.63
2023-08-08T03:51:12.734Z,101193.28
2023-08-08T03:53:44.955Z,101185.28
2023-08-08T03:56:17.111Z,101187.84
2023-08-08T03:58:49.177Z,101190.53
2023-08-08T04:01:21.284Z,101158.25
2023-08-08T04:03:53.526Z,101175.16
2023-08-08T04:06:25.761Z,101182.28
2023-08-08T04:08:57.894Z,101175.22
2023-08-08T04:11:30.012Z,101145.41
2023-08-08T04:14:02.040Z,101174.41
2023-08-08T04:16:34.187Z,101182.16
2023-08-08T04:19:06.907Z,101185.66
2023-08-08T04:21:38.882Z,101174.91
2023-08-08T04:24:11.015Z,101169.47
2023-08-08T04:26:43.273Z,101169.47
2023-08-08T04:29:15.251Z,101183.72
2023-08-08T04:31:47.233Z,101181.81
2023-08-08T04:34:19.165Z,101181.75
2023-08-08T04:36:51.208Z,101171.03
2023-08-08T04:39:23.378Z,101154.97
2023-08-08T04:41:55.410Z,101188.00
2023-08-08T04:44:27.432Z,101172.91
2023-08-08T04:46:59.467Z,101184.53
2023-08-08T04:49:31.481Z,101192.47
2023-08-08T04:52:07.090Z,101193.34
2023-08-08T04:54:39.261Z,101186.16
2023-08-08T04:57:11.412Z,101171.88
2023-08-08T04:59:43.920Z,101190.72
2023-08-08T05:02:16.273Z,101188.84
2023-08-08T05:04:48.315Z,101192.34
2023-08-08T05:07:20.394Z,101160.19
2023-08-08T05:09:53.132Z,101179.09
2023-08-08T05:12:26.198Z,101171.94
2023-08-08T05:14:58.454Z,101187.13
2023-08-08T05:17:33.280Z,101190.72
2023-08-08T05:20:07.062Z,101190.66
2023-08-08T05:22:39.231Z,101190.59
2023-08-08T05:25:11.314Z,101177.28
2023-08-08T05:27:43.684Z,101192.53
2023-08-08T05:30:15.654Z,101182.84
2023-08-08T05:32:47.587Z,101183.69
2023-08-08T05:35:22.064Z,101188.16
2023-08-08T05:37:54.045Z,101188.13
2023-08-08T05:40:26.038Z,101174.81
2023-08-08T05:42:58.129Z,101192.94
2023-08-08T05:45:30.238Z,101201.88
2023-08-08T05:48:02.275Z,101191.34
2023-08-08T05:50:34.406Z,101190.56
2023-08-08T05:53:07.734Z,101194.31
2023-08-08T05:55:43.829Z,101186.53
2023-08-08T05:58:15.942Z,101193.78
2023-08-08T06:00:48.207Z,101177.84
2023-08-08T06:03:20.267Z,101194.09
2023-08-08T06:05:52.370Z,101187.03
2023-08-08T06:08:24.528Z,101202.34
2023-08-08T06:10:56.698Z,101197.94
2023-08-08T06:13:28.716Z,101180.09
2023-08-08T06:16:02.323Z,101198.97
2023-08-08T06:18:35.360Z,101192.88
2023-08-08T06:21:08.043Z,101198.28
2023-08-08T06:23:40.068Z,101172.44
2023-08-08T06:26:12.154Z,101182.25
2023-08-08T06:28:44.250Z,101201.09
2023-08-08T06:31:16.890Z,101203.91
2023-08-08T06:33:49.547Z,101211.25
2023-08-08T06:36:21.597Z,101195.28
2023-08-08T06:38:53.684Z,101187.38
2023-08-08T06:41:25.657Z,101185.66
2023-08-08T06:43:57.851Z,101186.72
2023-08-08T06:46:32.906Z,101211.81
2023-08-08T06:49:07.993Z,101212.88
2023-08-08T06:51:40.051Z,101184.47
2023-08-08T06:54:12.173Z,101211.31
2023-08-08T06:56:44.649Z,101202.63
2023-08-08T06:59:16.699Z,101198.31
2023-08-08T07:01:48.755Z,101200.88
2023-08-08T07:04:23.552Z,101209.63
2023-08-08T07:06:55.840Z,101208.00
2023-08-08T07:09:28.198Z,101169.91
2023-08-08T07:12:00.525Z,101203.91
2023-08-08T07:14:33.879Z,101193.34
2023-08-08T07:17:06.966Z,101212.22
2023-08-08T07:19:38.921Z,101198.13
2023-08-08T07:22:11.147Z,101204.47
2023-08-08T07:24:43.186Z,101198.44
2023-08-08T07:27:15.229Z,101195.09
2023-08-08T07:29:47.263Z,101191.56
2023-08-08T07:32:22.144Z,101182.66
2023-08-08T07:34:54.105Z,101197.81
2023-08-08T07:37:27.166Z,101192.41
2023-08-08T07:39:59.251Z,101203.81
2023-08-08T07:42:31.245Z,101196.66
2023-08-08T07:45:03.436Z,101192.16
2023-08-08T07:47:35.669Z,101141.31
2023-08-08T07:50:12.888Z,101200.19
2023-08-08T07:52:44.990Z,101189.50
2023-08-08T07:55:17.158Z,101163.56
2023-08-08T07:57:49.242Z,101193.03
2023-08-08T08:00:21.492Z,101183.28
2023-08-08T08:02:53.476Z,101187.00
2023-08-08T08:05:25.508Z,101186.16
2023-08-08T08:08:00.488Z,101193.28
2023-08-08T08:10:32.669Z,101172.69
2023-08-08T08:13:04.875Z,101186.13
2023-08-08T08:15:37.185Z,101205.56
2023-08-08T08:18:09.252Z,101175.13
2023-08-08T08:20:41.520Z,101192.09
2023-08-08T08:23:13.628Z,101201.09
2023-08-08T08:25:45.740Z,101202.97
2023-08-08T08:28:18.089Z,101197.84
2023-08-08T08:30:50.933Z,101183.84
2023-08-08T08:33:22.993Z,101195.56
2023-08-08T08:35:54.986Z,101183.06
2023-08-08T08:38:27.073Z,101192.81
2023-08-08T08:41:00.053Z,101186.53
2023-08-08T08:43:35.248Z,101178.41
2023-08-08T08:46:15.481Z,101179.22
2023-08-08T08:48:50.815Z,101194.38
2023-08-08T08:51:23.148Z,101187.28
2023-08-08T08:53:55.214Z,101186.47
2023-08-08T08:56:28.144Z,101107.28
2023-08-08T08:59:01.755Z,101151.97
2023-08-08T09:01:37.185Z,101141.31
2023-08-08T09:04:10.340Z,101183.19
2023-08-08T09:06:43.257Z,101194.69
2023-08-08T09:09:17.404Z,101207.13
2023-08-08T09:11:52.371Z,101180.25
2023-08-08T09:14:27.350Z,101208.72
2023-08-08T09:16:59.883Z,101207.72
2023-08-08T09:19:32.128Z,101210.34
2023-08-08T09:22:04.368Z,101200.56
2023-08-08T09:24:46.584Z,101210.31
2023-08-08T09:27:19.164Z,101187.19
2023-08-08T09:29:51.846Z,101202.38
2023-08-08T09:32:24.063Z,101191.66
2023-08-08T09:34:58.666Z,101205.03
2023-08-08T09:37:30.925Z,101195.13
2023-08-08T09:40:09.350Z,101206.66
2023-08-08T09:42:42.990Z,101221.84
2023-08-08T09:45:15.031Z,101217.50
2023-08-08T09:47:50.567Z,101189.16
2023-08-08T09:50:22.887Z,101198.97
2023-08-08T09:52:56.618Z,101206.13
2023-08-08T09:55:31.485Z,101197.25
2023-08-08T09:58:05.843Z,101185.84
2023-08-08T10:00:38.359Z,101196.63
2023-08-08T10:03:10.959Z,101184.16
2023-08-08T10:05:46.208Z,101194.94
2023-08-08T10:08:20.001Z,101197.59
2023-08-08T10:10:52.969Z,101196.75
2023-08-08T10:13:27.963Z,101171.88
2023-08-08T10:16:10.130Z,101184.44
2023-08-08T10:18:42.365Z,101192.47
2023-08-08T10:21:15.345Z,101191.63
2023-08-08T10:23:48.491Z,101191.63
2023-08-08T10:26:21.316Z,101187.28
2023-08-08T10:29:02.013Z,101191.75
2023-08-08T10:31:37.801Z,101185.56
2023-08-08T10:34:10.833Z,101199.88
2023-08-08T10:37:01.091Z,101198.09
2023-08-08T10:39:36.500Z,101198.16
2023-08-08T10:42:08.838Z,101190.13
2023-08-08T10:44:46.655Z,101191.00
2023-08-08T10:47:35.228Z,101198.00
2023-08-08T10:50:16.617Z,101160.47
2023-08-08T10:52:53.207Z,101200.50
2023-08-08T10:55:28.233Z,101209.28
2023-08-08T10:58:04.172Z,101210.06
2023-08-08T11:00:46.441Z,101193.03
2023-08-08T11:03:19.429Z,101201.00
2023-08-08T11:05:52.128Z,101185.00
2023-08-08T11:08:24.702Z,101198.44
2023-08-08T11:10:56.750Z,101182.47
2023-08-08T11:13:30.190Z,101131.75
2023-08-08T11:16:08.033Z,101155.09
2023-08-08T11:18:43.609Z,101162.31
2023-08-08T11:21:19.433Z,101176.66
2023-08-08T11:23:51.712Z,101151.84
2023-08-08T11:26:24.675Z,101166.19
2023-08-08T11:28:56.954Z,101169.78
2023-08-08T11:31:30.623Z,101177.81
2023-08-08T11:34:03.212Z,101154.66
2023-08-08T11:36:36.968Z,101160.00
2023-08-08T11:39:11.013Z,101163.59
2023-08-08T11:41:46.703Z,101146.69
2023-08-08T11:44:18.906Z,101162.69
2023-08-08T11:46:54.083Z,101150.22
2023-08-08T11:49:26.315Z,101169.78
2023-08-08T11:51:58.638Z,101172.41
2023-08-08T11:54:32.366Z,101174.19
2023-08-08T11:57:04.977Z,101165.22
2023-08-08T11:59:37.628Z,101177.66
2023-08-08T12:02:11.848Z,101148.19
2023-08-08T12:04:47.819Z,101176.69
2023-08-08T12:07:20.542Z,101179.34
2023-08-08T12:09:57.121Z,101162.38
2023-08-08T12:12:29.481Z,101134.84
2023-08-08T12:15:15.766Z,101147.44
2023-08-08T12:17:49.118Z,101136.78
2023-08-08T12:20:21.279Z,101156.41
2023-08-08T12:22:53.305Z,101152.88
2023-08-08T12:25:25.425Z,101152.88
2023-08-08T12:27:57.510Z,101139.53
2023-08-08T12:30:29.649Z,101146.66
2023-08-08T12:33:02.496Z,101144.00
2023-08-08T12:35:34.463Z,101092.38
2023-08-08T12:38:07.189Z,101132.34
2023-08-08T12:40:39.265Z,101137.69
2023-08-08T12:43:18.610Z,101151.97
2023-08-08T12:45:50.787Z,101135.94
2023-08-08T12:48:22.901Z,101151.09
2023-08-08T12:50:54.967Z,101141.34
2023-08-08T12:53:27.319Z,101140.44
2023-08-08T12:56:02.339Z,101141.34
2023-08-08T12:58:34.336Z,101137.75
2023-08-08T13:01:07.045Z,101131.47
2023-08-08T13:03:39.290Z,101092.31
2023-08-08T13:06:14.431Z,101111.84
2023-08-08T13:08:49.221Z,101129.66
2023-08-08T13:11:22.405Z,101130.59
2023-08-08T13:13:57.363Z,101130.59
2023-08-08T13:16:29.418Z,101120.75
2023-08-08T13:19:07.050Z,101093.19
2023-08-08T13:21:39.042Z,101129.63
2023-08-08T13:24:13.799Z,101139.38
2023-08-08T13:26:45.845Z,101126.84
2023-08-08T13:29:18.157Z,101124.19
2023-08-08T13:31:50.254Z,101101.91
2023-08-08T13:34:22.284Z,101140.13
2023-08-08T13:36:54.308Z,101119.72
2023-08-08T13:39:41.432Z,101114.34
2023-08-08T13:42:14.320Z,101142.78
2023-08-08T13:44:46.387Z,101132.06
2023-08-08T13:47:18.383Z,101140.06
2023-08-08T13:49:50.460Z,101147.16
2023-08-08T13:52:22.523Z,101117.88
2023-08-08T13:54:56.392Z,101072.56
2023-08-08T13:57:28.419Z,101131.34
2023-08-08T14:00:01.549Z,101150.06
2023-08-08T14:02:34.394Z,101121.56
2023-08-08T14:05:08.059Z,101148.25
2023-08-08T14:07:40.084Z,101142.94
2023-08-08T14:10:12.158Z,101134.97
2023-08-08T14:12:44.347Z,101111.81
2023-08-08T14:15:18.979Z,101112.69
2023-08-08T14:17:51.212Z,101122.50
2023-08-08T14:20:23.293Z,101137.63
2023-08-08T14:22:55.579Z,101129.53
2023-08-08T14:25:27.821Z,101134.81
2023-08-08T14:28:03.772Z,101118.75
2023-08-08T14:30:35.728Z,101111.72
2023-08-08T14:33:07.913Z,101128.59
2023-08-08T14:35:40.026Z,101122.38
2023-08-08T14:38:12.196Z,101109.88
2023-08-08T14:40:44.473Z,101115.16
2023-08-08T14:43:16.520Z,101124.06
2023-08-08T14:45:48.538Z,101133.00
2023-08-08T14:48:20.622Z,101132.94
2023-08-08T14:50:52.838Z,101136.50
2023-08-08T14:53:24.830Z,101119.66
2023-08-08T14:55:57.340Z,101131.28
2023-08-08T14:58:29.339Z,101108.16
2023-08-08T15:01:04.196Z,101130.47
2023-08-08T15:03:36.337Z,101133.16
2023-08-08T15:06:08.460Z,101121.59
2023-08-08T15:08:40.560Z,101137.63
2023-08-08T15:11:13.058Z,101144.78
2023-08-08T15:13:45.423Z,101137.66
2023-08-08T15:16:20.198Z,101141.22
2023-08-08T15:18:52.217Z,101146.56
2023-08-08T15:21:24.252Z,101139.41
2023-08-08T15:23:56.439Z,101151.91
2023-08-08T15:26:28.538Z,101155.47
2023-08-08T15:29:02.795Z,101134.16
2023-08-08T15:31:35.009Z,101151.06
2023-08-08T15:34:07.584Z,101150.16
2023-08-08T15:36:39.586Z,101127.91
2023-08-08T15:39:12.634Z,101156.38
2023-08-08T15:41:44.890Z,101153.75
2023-08-08T15:44:17.783Z,101112.84
2023-08-08T15:46:49.885Z,101141.28
2023-08-08T15:49:22.125Z,101170.66
2023-08-08T15:51:57.891Z,101152.84
2023-08-08T15:54:30.009Z,101159.13
2023-08-08T15:57:03.402Z,101158.25
2023-08-08T15:59:37.941Z,101136.88
2023-08-08T16:02:10.872Z,101152.88
2023-08-08T16:04:42.843Z,101156.44
2023-08-08T16:07:21.760Z,101160.94
2023-08-08T16:09:53.820Z,101163.53
2023-08-08T16:12:25.861Z,101170.66
2023-08-08T16:14:57.884Z,101163.56
2023-08-08T16:17:29.967Z,101164.44
2023-08-08T16:20:02.422Z,101155.53
2023-08-08T16:22:34.593Z,101173.34
2023-08-08T16:25:07.941Z,101174.22
2023-08-08T16:27:41.694Z,101179.56
2023-08-08T16:30:14.287Z,101176.91
2023-08-08T16:32:46.449Z,101170.66
2023-08-08T16:35:18.594Z,101152.84
2023-08-08T16:37:50.746Z,101174.19
2023-08-08T16:40:22.860Z,101166.19
2023-08-08T16:42:54.798Z,101165.28
2023-08-08T16:45:26.796Z,101151.97
2023-08-08T16:47:58.724Z,101152.84
2023-08-08T16:50:30.760Z,101135.03
2023-08-08T16:53:03.814Z,101146.59
2023-08-08T16:55:35.860Z,101150.16
2023-08-08T16:58:07.790Z,101151.03
2023-08-08T17:00:39.925Z,101125.19
2023-08-08T17:03:12.119Z,101144.78
2023-08-08T17:05:44.162Z,101148.34
2023-08-08T17:08:16.172Z,101151.88
2023-08-08T17:10:48.249Z,101128.66
2023-08-08T17:13:20.247Z,101157.22
2023-08-08T17:15:52.269Z,101144.69
2023-08-08T17:18:24.412Z,101150.00
2023-08-08T17:20:56.952Z,101150.03
2023-08-08T17:23:28.868Z,101163.31
2023-08-08T17:26:01.064Z,101139.28
2023-08-08T17:28:33.150Z,101164.19
2023-08-08T17:31:07.094Z,101149.00
2023-08-08T17:33:39.132Z,101147.22
2023-08-08T17:36:11.163Z,101132.09
2023-08-08T17:38:43.169Z,101156.09
2023-08-08T17:41:15.205Z,101172.03
2023-08-08T17:43:49.972Z,101174.56
2023-08-08T17:46:22.313Z,101150.38
2023-08-08T17:48:54.545Z,101176.94
2023-08-08T17:51:26.641Z,101156.38
2023-08-08T17:54:00.853Z,101143.81
2023-08-08T17:56:32.890Z,101165.22
2023-08-08T17:59:06.925Z,101162.56
2023-08-08T18:01:39.167Z,101148.19
2023-08-08T18:04:13.192Z,101150.72
2023-08-08T18:06:45.156Z,101172.94
2023-08-08T18:09:17.248Z,101171.06
2023-08-08T18:11:49.221Z,101175.47
2023-08-08T18:14:21.219Z,101174.53
2023-08-08T18:16:53.294Z,101170.16
2023-08-08T18:19:25.408Z,101157.63
2023-08-08T18:21:57.437Z,101166.66
2023-08-08T18:24:29.502Z,101167.50
2023-08-08T18:27:01.595Z,101131.97
2023-08-08T18:29:33.633Z,101124.88
2023-08-08T18:32:06.035Z,101142.81
2023-08-08T18:34:38.035Z,101115.31
2023-08-08T18:37:10.150Z,101121.50
2023-08-08T18:39:42.166Z,101139.38
2023-08-08T18:42:14.189Z,101151.78
2023-08-08T18:44:48.064Z,101128.63
2023-08-08T18:47:20.439Z,101162.34
2023-08-08T18:49:52.407Z,101151.66
2023-08-08T18:52:24.565Z,101139.41
2023-08-08T18:54:56.626Z,101147.94
2023-08-08T18:57:28.656Z,101140.69
2023-08-08T19:00:00.919Z,101140.66
2023-08-08T19:02:33.046Z,101142.50
2023-08-08T19:05:05.920Z,101130.00
2023-08-08T19:07:37.949Z,101146.13
2023-08-08T19:10:10.981Z,101118.50
2023-08-08T19:12:43.552Z,101147.91
2023-08-08T19:15:15.931Z,101111.38
2023-08-08T19:17:56.177Z,101101.50
2023-08-08T19:20:29.099Z,101131.75
2023-08-08T19:23:01.438Z,101116.53
2023-08-08T19:25:33.436Z,101116.59
2023-08-08T19:28:05.844Z,101113.09
2023-08-08T19:30:37.920Z,101090.88
2023-08-08T19:33:10.016Z,101120.22
2023-08-08T19:35:42.076Z,101115.75
2023-08-08T19:38:14.180Z,101109.56
2023-08-08T19:40:47.377Z,101104.19
2023-08-08T19:43:19.531Z,101106.81
2023-08-08T19:45:54.164Z,101107.66
2023-08-08T19:48:26.344Z,101097.75
2023-08-08T19:50:58.906Z,101089.81
2023-08-08T19:53:30.933Z,101112.09
2023-08-08T19:56:03.081Z,101077.38
2023-08-08T19:58:35.949Z,101093.38
2023-08-08T20:01:08.115Z,101106.81
2023-08-08T20:03:43.256Z,101099.72
2023-08-08T20:06:15.491Z,101038.16
2023-08-08T20:08:47.880Z,100990.88
2023-08-08T20:11:19.902Z,101067.69
2023-08-08T20:13:51.988Z,101083.72
2023-08-08T20:16:26.297Z,101081.00
2023-08-08T20:19:00.792Z,101058.78
2023-08-08T20:21:33.482Z,101066.75
2023-08-08T20:24:09.171Z,101060.50
2023-08-08T20:26:41.954Z,101049.81
2023-08-08T20:29:15.176Z,101042.63
2023-08-08T20:31:52.783Z,101046.16
2023-08-08T20:34:25.197Z,101035.38
2023-08-08T20:37:01.647Z,101056.75
2023-08-08T20:39:34.067Z,100968.47
2023-08-08T20:42:06.913Z,101053.16
2023-08-08T20:44:38.924Z,101053.09
2023-08-08T20:47:10.983Z,101062.81
2023-08-08T20:49:43.030Z,101052.94
2023-08-08T20:52:15.041Z,101059.31
2023-08-08T20:54:47.042Z,101070.81
2023-08-08T20:57:19.172Z,101012.88
2023-08-08T20:59:51.122Z,101062.00
2023-08-08T21:02:23.493Z,101042.47
2023-08-08T21:04:55.642Z,101040.69
2023-08-08T21:07:27.732Z,101035.38
2023-08-08T21:10:03.339Z,101033.56
2023-08-08T21:12:35.443Z,101045.25
2023-08-08T21:15:08.207Z,101023.00
2023-08-08T21:17:47.240Z,101031.03
2023-08-08T21:20:19.506Z,101018.53
2023-08-08T21:22:51.647Z,101002.47
2023-08-08T21:25:23.843Z,101002.44
2023-08-08T21:27:55.906Z,101022.09
2023-08-08T21:30:30.975Z,101021.22
2023-08-08T21:33:03.118Z,101013.25
2023-08-08T21:35:35.155Z,101015.84
2023-08-08T21:38:12.962Z,101018.56
2023-08-08T21:40:45.123Z,100986.41
2023-08-08T21:43:17.163Z,101014.13
2023-08-08T21:45:49.238Z,100950.88
2023-08-08T21:48:21.232Z,101002.59
2023-08-08T21:50:53.207Z,100991.81
2023-08-08T21:53:25.924Z,100878.78
2023-08-08T21:55:57.978Z,100988.31
2023-08-08T21:58:30.066Z,100963.31
2023-08-08T22:01:02.158Z,100961.53
2023-08-08T22:03:34.198Z,100981.09
2023-08-08T22:06:09.437Z,100978.44
2023-08-08T22:08:41.456Z,100914.22
2023-08-08T22:11:13.552Z,100977.50
2023-08-08T22:13:45.623Z,100981.97
2023-08-08T22:16:20.811Z,100982.00
2023-08-08T22:18:53.111Z,100974.88
2023-08-08T22:21:25.657Z,100993.50
2023-08-08T22:23:57.703Z,100993.47
2023-08-08T22:26:29.735Z,100996.13
2023-08-08T22:29:01.778Z,100979.19
2023-08-08T22:31:33.803Z,100989.91
2023-08-08T22:34:07.537Z,100989.94
2023-08-08T22:36:39.576Z,100997.06
2023-08-08T22:39:11.557Z,101004.13
2023-08-08T22:41:43.683Z,101005.94
2023-08-08T22:44:15.664Z,101010.34
2023-08-08T22:46:50.544Z,101029.06
2023-08-08T22:49:22.668Z,101005.09
2023-08-08T22:51:54.729Z,101033.63
2023-08-08T22:54:26.785Z,101017.66
2023-08-08T22:56:58.955Z,101047.88
2023-08-08T22:59:31.361Z,101041.63
2023-08-08T23:02:03.619Z,101030.97
2023-08-08T23:04:35.719Z,101038.09
2023-08-08T23:07:08.320Z,101041.53
2023-08-08T23:09:40.281Z,101029.00
2023-08-08T23:12:12.309Z,101047.72
2023-08-08T23:14:44.554Z,101014.75
2023-08-08T23:17:16.629Z,101029.06
2023-08-08T23:19:48.668Z,101044.28
2023-08-08T23:22:20.903Z,101040.75
2023-08-08T23:24:52.993Z,101018.31
2023-08-08T23:27:25.887Z,101054.75
2023-08-08T23:29:58.265Z,101052.09
2023-08-08T23:32:30.276Z,101038.81
2023-08-08T23:35:02.267Z,101052.22
2023-08-08T23:37:34.325Z,101056.69
2023-08-08T23:40:09.320Z,101052.25
2023-08-08T23:42:41.357Z,101058.50
2023-08-08T23:45:15.916Z,101062.03
2023-08-08T23:47:50.865Z,101064.59
2023-08-08T23:50:22.880Z,101069.03
2023-08-08T23:52:55.482Z,101029.91
2023-08-08T23:55:27.653Z,101037.91
2023-08-08T23:57:59.780Z,101044.22
